sensor_id;sensor_type;location;lat;lon;timestamp;pressure;altitude;pressure_sealevel;temperature;humidity
22647;BME280;11490;42.726;23.268;2023-04-25T00:00:54;94440.59;;;11.50;100.00
22647;BME280;11490;42.726;23.268;2023-04-25T00:03:20;94436.06;;;11.51;100.00
22647;BME280;11490;42.726;23.268;2023-04-25T00:05:46;94426.41;;;11.35;100.00
22647;BME280;11490;42.726;23.268;2023-04-25T00:08:11;94420.25;;;11.29;100.00
22647;BME280;11490;42.726;23.268;2023-04-25T00:10:36;94416.41;;;11.15;100.00
22647;BME280;11490;42.726;23.268;2023-04-25T00:13:02;94411.38;;;11.24;100.00
22647;BME280;11490;42.726;23.268;2023-04-25T00:15:28;94405.22;;;11.18;100.00
22647;BME280;11490;42.726;23.268;2023-04-25T00:17:56;94413.53;;;11.27;100.00
22647;BME280;11490;42.726;23.268;2023-04-25T00:20:21;94418.94;;;11.47;100.00
22647;BME280;11490;42.726;23.268;2023-04-25T00:22:48;94405.59;;;11.42;100.00
22647;BME280;11490;42.726;23.268;2023-04-25T00:25:14;94425.44;;;11.61;100.00
22647;BME280;11490;42.726;23.268;2023-04-25T00:27:39;94442.25;;;11.67;100.00
22647;BME280;11490;42.726;23.268;2023-04-25T00:30:07;94441.41;;;11.56;100.00
22647;BME280;11490;42.726;23.268;2023-04-25T00:32:32;94443.56;;;11.59;100.00
22647;BME280;11490;42.726;23.268;2023-04-25T00:34:58;94446.34;;;11.84;100.00
22647;BME280;11490;42.726;23.268;2023-04-25T00:37:23;94442.59;;;11.85;100.00
22647;BME280;11490;42.726;23.268;2023-04-25T00:39:49;94437.00;;;11.82;100.00
22647;BME280;11490;42.726;23.268;2023-04-25T00:42:15;94429.22;;;11.80;100.00
22647;BME280;11490;42.726;23.268;2023-04-25T00:44:40;94418.16;;;11.46;100.00
22647;BME280;11490;42.726;23.268;2023-04-25T00:47:06;94427.50;;;11.49;100.00
22647;BME280;11490;42.726;23.268;2023-04-25T00:49:32;94417.41;;;11.66;100.00
22647;BME280;11490;42.726;23.268;2023-04-25T00:51:57;94417.88;;;11.48;100.00
22647;BME280;11490;42.726;23.268;2023-04-25T00:54:23;94423.81;;;11.70;100.00
22647;BME280;11490;42.726;23.268;2023-04-25T00:56:48;94402.25;;;11.82;100.00
22647;BME280;11490;42.726;23.268;2023-04-25T00:59:15;94415.88;;;11.85;100.00
22647;BME280;11490;42.726;23.268;2023-04-25T01:01:41;94415.88;;;11.75;100.00
22647;BME280;11490;42.726;23.268;2023-04-25T01:04:07;94418.03;;;11.93;100.00
22647;BME280;11490;42.726;23.268;2023-04-25T01:06:32;94398.78;;;12.02;100.00
22647;BME280;11490;42.726;23.268;2023-04-25T01:08:58;94403.09;;;11.98;100.00
22647;BME280;11490;42.726;23.268;2023-04-25T01:11:24;94398.25;;;11.94;100.00
22647;BME280;11490;42.726;23.268;2023-04-25T01:13:50;94403.59;;;11.94;100.00
22647;BME280;11490;42.726;23.268;2023-04-25T01:16:16;94403.47;;;11.54;100.00
22647;BME280;11490;42.726;23.268;2023-04-25T01:18:41;94393.38;;;11.71;100.00
22647;BME280;11490;42.726;23.268;2023-04-25T01:21:11;94403.06;;;11.82;100.00
22647;BME280;11490;42.726;23.268;2023-04-25T01:23:39;94380.56;;;11.73;100.00
22647;BME280;11490;42.726;23.268;2023-04-25T01:26:06;94385.38;;;11.71;100.00
22647;BME280;11490;42.726;23.268;2023-04-25T01:28:33;94382.75;;;11.76;100.00
22647;BME280;11490;42.726;23.268;2023-04-25T01:30:59;94389.69;;;11.82;100.00
22647;BME280;11490;42.726;23.268;2023-04-25T01:33:24;94392.28;;;11.57;100.00
22647;BME280;11490;42.726;23.268;2023-04-25T01:35:50;94394.44;;;11.65;100.00
22647;BME280;11490;42.726;23.268;2023-04-25T01:38:15;94386.91;;;11.47;100.00
22647;BME280;11490;42.726;23.268;2023-04-25T01:40:41;94377.78;;;11.23;100.00
22647;BME280;11490;42.726;23.268;2023-04-25T01:43:08;94376.56;;;10.93;100.00
22647;BME280;11490;42.726;23.268;2023-04-25T01:45:37;94373.81;;;10.78;100.00
22647;BME280;11490;42.726;23.268;2023-04-25T01:48:05;94386.19;;;10.94;100.00
22647;BME280;11490;42.726;23.268;2023-04-25T01:50:31;94385.44;;;11.09;100.00
22647;BME280;11490;42.726;23.268;2023-04-25T01:52:56;94378.28;;;11.25;100.00
22647;BME280;11490;42.726;23.268;2023-04-25T01:55:22;94370.34;;;11.40;100.00
22647;BME280;11490;42.726;23.268;2023-04-25T01:57:47;94369.19;;;11.15;100.00
22647;BME280;11490;42.726;23.268;2023-04-25T02:00:13;94386.84;;;11.27;100.00
22647;BME280;11490;42.726;23.268;2023-04-25T02:02:38;94390.09;;;11.39;100.00
22647;BME280;11490;42.726;23.268;2023-04-25T02:05:04;94401.25;;;11.26;100.00
22647;BME280;11490;42.726;23.268;2023-04-25T02:07:29;94402.13;;;11.36;100.00
22647;BME280;11490;42.726;23.268;2023-04-25T02:09:55;94393.31;;;11.41;100.00
22647;BME280;11490;42.726;23.268;2023-04-25T02:12:20;94387.19;;;11.45;100.00
22647;BME280;11490;42.726;23.268;2023-04-25T02:14:46;94378.34;;;11.35;100.00
22647;BME280;11490;42.726;23.268;2023-04-25T02:17:11;94351.50;;;10.94;100.00
22647;BME280;11490;42.726;23.268;2023-04-25T02:19:37;94356.88;;;11.04;100.00
22647;BME280;11490;42.726;23.268;2023-04-25T02:22:03;94359.84;;;11.13;100.00
22647;BME280;11490;42.726;23.268;2023-04-25T02:24:29;94362.66;;;10.81;100.00
22647;BME280;11490;42.726;23.268;2023-04-25T02:26:54;94365.63;;;10.90;100.00
22647;BME280;11490;42.726;23.268;2023-04-25T02:29:21;94357.38;;;10.91;100.00
22647;BME280;11490;42.726;23.268;2023-04-25T02:31:46;94352.31;;;10.95;100.00
22647;BME280;11490;42.726;23.268;2023-04-25T02:34:12;94343.28;;;11.06;100.00
22647;BME280;11490;42.726;23.268;2023-04-25T02:36:37;94348.88;;;11.09;100.00
22647;BME280;11490;42.726;23.268;2023-04-25T02:39:02;94338.22;;;11.09;100.00
22647;BME280;11490;42.726;23.268;2023-04-25T02:41:28;94329.84;;;10.86;100.00
22647;BME280;11490;42.726;23.268;2023-04-25T02:43:53;94344.81;;;10.92;100.00
22647;BME280;11490;42.726;23.268;2023-04-25T02:46:19;94336.06;;;11.01;100.00
22647;BME280;11490;42.726;23.268;2023-04-25T02:48:45;94342.94;;;10.82;100.00
22647;BME280;11490;42.726;23.268;2023-04-25T02:51:10;94329.03;;;10.80;100.00
22647;BME280;11490;42.726;23.268;2023-04-25T02:53:35;94344.28;;;10.90;100.00
22647;BME280;11490;42.726;23.268;2023-04-25T02:56:01;94330.34;;;10.72;100.00
22647;BME280;11490;42.726;23.268;2023-04-25T02:58:26;94325.63;;;10.37;100.00
22647;BME280;11490;42.726;23.268;2023-04-25T03:00:52;94322.50;;;10.56;100.00
22647;BME280;11490;42.726;23.268;2023-04-25T03:03:17;94330.59;;;10.71;100.00
22647;BME280;11490;42.726;23.268;2023-04-25T03:05:46;94327.28;;;10.54;100.00
22647;BME280;11490;42.726;23.268;2023-04-25T03:08:11;94330.53;;;10.61;100.00
22647;BME280;11490;42.726;23.268;2023-04-25T03:10:38;94323.69;;;10.75;100.00
22647;BME280;11490;42.726;23.268;2023-04-25T03:13:03;94319.66;;;10.67;100.00
22647;BME280;11490;42.726;23.268;2023-04-25T03:15:29;94331.09;;;10.63;100.00
22647;BME280;11490;42.726;23.268;2023-04-25T03:17:56;94323.66;;;10.70;100.00
22647;BME280;11490;42.726;23.268;2023-04-25T03:20:21;94320.97;;;10.65;100.00
22647;BME280;11490;42.726;23.268;2023-04-25T03:22:47;94325.25;;;10.66;100.00
22647;BME280;11490;42.726;23.268;2023-04-25T03:25:12;94322.03;;;10.69;100.00
22647;BME280;11490;42.726;23.268;2023-04-25T03:27:37;94325.19;;;10.61;100.00
22647;BME280;11490;42.726;23.268;2023-04-25T03:30:03;94315.06;;;10.53;100.00
22647;BME280;11490;42.726;23.268;2023-04-25T03:32:29;94321.44;;;10.52;100.00
22647;BME280;11490;42.726;23.268;2023-04-25T03:34:55;94322.28;;;10.62;100.00
22647;BME280;11490;42.726;23.268;2023-04-25T03:37:20;94328.38;;;10.53;100.00
22647;BME280;11490;42.726;23.268;2023-04-25T03:39:46;94325.50;;;10.17;100.00
22647;BME280;11490;42.726;23.268;2023-04-25T03:42:11;94335.81;;;10.51;100.00
22647;BME280;11490;42.726;23.268;2023-04-25T03:44:36;94320.72;;;10.71;100.00
22647;BME280;11490;42.726;23.268;2023-04-25T03:47:02;94312.75;;;10.76;100.00
22647;BME280;11490;42.726;23.268;2023-04-25T03:49:27;94312.53;;;10.83;100.00
22647;BME280;11490;42.726;23.268;2023-04-25T03:51:52;94322.66;;;10.86;100.00
22647;BME280;11490;42.726;23.268;2023-04-25T03:54:18;94322.91;;;10.85;100.00
22647;BME280;11490;42.726;23.268;2023-04-25T03:56:43;94333.06;;;10.93;100.00
22647;BME280;11490;42.726;23.268;2023-04-25T03:59:08;94323.09;;;10.63;100.00
22647;BME280;11490;42.726;23.268;2023-04-25T04:01:34;94329.84;;;10.80;100.00
22647;BME280;11490;42.726;23.268;2023-04-25T04:04:00;94335.44;;;10.84;100.00
22647;BME280;11490;42.726;23.268;2023-04-25T04:06:26;94339.03;;;11.10;100.00
22647;BME280;11490;42.726;23.268;2023-04-25T04:08:51;94338.75;;;11.06;100.00
22647;BME280;11490;42.726;23.268;2023-04-25T04:11:17;94337.75;;;11.23;100.00
22647;BME280;11490;42.726;23.268;2023-04-25T04:13:42;94338.81;;;11.32;100.00
22647;BME280;11490;42.726;23.268;2023-04-25T04:16:08;94339.88;;;11.26;100.00
22647;BME280;11490;42.726;23.268;2023-04-25T04:18:33;94327.63;;;11.40;100.00
22647;BME280;11490;42.726;23.268;2023-04-25T04:20:59;94322.03;;;11.56;100.00
22647;BME280;11490;42.726;23.268;2023-04-25T04:23:24;94324.97;;;11.45;100.00
22647;BME280;11490;42.726;23.268;2023-04-25T04:25:52;94322.97;;;11.00;100.00
22647;BME280;11490;42.726;23.268;2023-04-25T04:28:19;94329.19;;;11.21;100.00
22647;BME280;11490;42.726;23.268;2023-04-25T04:30:45;94317.75;;;11.30;100.00
22647;BME280;11490;42.726;23.268;2023-04-25T04:33:11;94336.22;;;11.52;100.00
22647;BME280;11490;42.726;23.268;2023-04-25T04:35:37;94337.28;;;11.66;100.00
22647;BME280;11490;42.726;23.268;2023-04-25T04:38:03;94332.97;;;11.55;100.00
22647;BME280;11490;42.726;23.268;2023-04-25T04:40:28;94325.78;;;11.50;100.00
22647;BME280;11490;42.726;23.268;2023-04-25T04:42:55;94332.22;;;11.65;100.00
22647;BME280;11490;42.726;23.268;2023-04-25T04:45:22;94342.09;;;11.59;100.00
22647;BME280;11490;42.726;23.268;2023-04-25T04:47:49;94339.41;;;11.59;100.00
22647;BME280;11490;42.726;23.268;2023-04-25T04:50:17;94352.75;;;11.69;100.00
22647;BME280;11490;42.726;23.268;2023-04-25T04:52:43;94340.75;;;11.72;100.00
22647;BME280;11490;42.726;23.268;2023-04-25T04:55:08;94337.53;;;11.54;100.00
22647;BME280;11490;42.726;23.268;2023-04-25T04:57:34;94353.38;;;11.76;100.00
22647;BME280;11490;42.726;23.268;2023-04-25T05:00:00;94344.81;;;11.74;100.00
22647;BME280;11490;42.726;23.268;2023-04-25T05:02:26;94352.22;;;11.62;100.00
22647;BME280;11490;42.726;23.268;2023-04-25T05:04:52;94362.38;;;11.65;100.00
22647;BME280;11490;42.726;23.268;2023-04-25T05:07:18;94355.50;;;11.74;100.00
22647;BME280;11490;42.726;23.268;2023-04-25T05:09:44;94352.81;;;11.79;100.00
22647;BME280;11490;42.726;23.268;2023-04-25T05:12:09;94368.25;;;11.62;100.00
22647;BME280;11490;42.726;23.268;2023-04-25T05:14:35;94377.91;;;11.68;100.00
22647;BME280;11490;42.726;23.268;2023-04-25T05:17:00;94379.00;;;11.77;100.00
22647;BME280;11490;42.726;23.268;2023-04-25T05:19:26;94370.47;;;11.75;100.00
22647;BME280;11490;42.726;23.268;2023-04-25T05:21:51;94361.59;;;11.65;100.00
22647;BME280;11490;42.726;23.268;2023-04-25T05:24:17;94358.00;;;11.18;100.00
22647;BME280;11490;42.726;23.268;2023-04-25T05:26:42;94371.44;;;11.44;100.00
22647;BME280;11490;42.726;23.268;2023-04-25T05:29:08;94360.78;;;11.64;100.00
22647;BME280;11490;42.726;23.268;2023-04-25T05:31:33;94358.72;;;11.81;100.00
22647;BME280;11490;42.726;23.268;2023-04-25T05:33:59;94359.25;;;11.93;100.00
22647;BME280;11490;42.726;23.268;2023-04-25T05:36:24;94350.69;;;12.02;100.00
22647;BME280;11490;42.726;23.268;2023-04-25T05:38:51;94350.94;;;12.00;100.00
22647;BME280;11490;42.726;23.268;2023-04-25T05:41:16;94352.22;;;11.62;100.00
22647;BME280;11490;42.726;23.268;2023-04-25T05:43:42;94356.06;;;11.91;100.00
22647;BME280;11490;42.726;23.268;2023-04-25T05:46:12;94362.19;;;12.17;100.00
22647;BME280;11490;42.726;23.268;2023-04-25T05:48:38;94348.00;;;12.27;100.00
22647;BME280;11490;42.726;23.268;2023-04-25T05:51:03;94349.09;;;12.11;100.00
22647;BME280;11490;42.726;23.268;2023-04-25T05:53:28;94338.94;;;12.23;100.00
22647;BME280;11490;42.726;23.268;2023-04-25T05:55:54;94346.97;;;12.23;100.00
22647;BME280;11490;42.726;23.268;2023-04-25T05:58:19;94350.19;;;12.15;100.00
22647;BME280;11490;42.726;23.268;2023-04-25T06:00:45;94358.72;;;12.37;100.00
22647;BME280;11490;42.726;23.268;2023-04-25T06:03:11;94318.88;;;12.30;100.00
22647;BME280;11490;42.726;23.268;2023-04-25T06:05:38;94350.34;;;12.64;100.00
22647;BME280;11490;42.726;23.268;2023-04-25T06:08:04;94333.53;;;12.58;100.00
22647;BME280;11490;42.726;23.268;2023-04-25T06:10:29;94339.91;;;12.62;100.00
22647;BME280;11490;42.726;23.268;2023-04-25T06:12:55;94322.25;;;12.71;100.00
22647;BME280;11490;42.726;23.268;2023-04-25T06:15:20;94349.75;;;12.92;100.00
22647;BME280;11490;42.726;23.268;2023-04-25T06:17:45;94345.22;;;12.88;100.00
22647;BME280;11490;42.726;23.268;2023-04-25T06:20:11;94343.69;;;12.66;100.00
22647;BME280;11490;42.726;23.268;2023-04-25T06:22:36;94359.16;;;12.85;100.00
22647;BME280;11490;42.726;23.268;2023-04-25T06:25:02;94368.22;;;12.89;100.00
22647;BME280;11490;42.726;23.268;2023-04-25T06:27:29;94338.25;;;12.87;100.00
22647;BME280;11490;42.726;23.268;2023-04-25T06:29:55;94348.59;;;13.19;100.00
22647;BME280;11490;42.726;23.268;2023-04-25T06:32:20;94355.63;;;12.99;100.00
22647;BME280;11490;42.726;23.268;2023-04-25T06:34:46;94336.19;;;12.68;100.00
22647;BME280;11490;42.726;23.268;2023-04-25T06:37:11;94363.09;;;13.02;100.00
22647;BME280;11490;42.726;23.268;2023-04-25T06:39:36;94372.91;;;13.37;100.00
22647;BME280;11490;42.726;23.268;2023-04-25T06:42:02;94353.50;;;13.56;100.00
22647;BME280;11490;42.726;23.268;2023-04-25T06:44:27;94365.22;;;13.70;100.00
22647;BME280;11490;42.726;23.268;2023-04-25T06:46:54;94372.09;;;13.81;100.00
22647;BME280;11490;42.726;23.268;2023-04-25T06:49:25;94355.69;;;13.54;100.00
22647;BME280;11490;42.726;23.268;2023-04-25T06:51:51;94376.38;;;13.33;100.00
22647;BME280;11490;42.726;23.268;2023-04-25T06:54:16;94339.50;;;13.20;100.00
22647;BME280;11490;42.726;23.268;2023-04-25T06:56:42;94357.94;;;13.31;100.00
22647;BME280;11490;42.726;23.268;2023-04-25T06:59:08;94366.47;;;13.33;100.00
22647;BME280;11490;42.726;23.268;2023-04-25T07:01:34;94369.28;;;12.98;100.00
22647;BME280;11490;42.726;23.268;2023-04-25T07:04:00;94379.38;;;13.31;100.00
22647;BME280;11490;42.726;23.268;2023-04-25T07:06:25;94342.44;;;13.18;100.00
22647;BME280;11490;42.726;23.268;2023-04-25T07:08:52;94360.13;;;13.19;100.00
22647;BME280;11490;42.726;23.268;2023-04-25T07:11:17;94372.44;;;13.10;100.00
22647;BME280;11490;42.726;23.268;2023-04-25T07:13:42;94350.53;;;12.98;100.00
22647;BME280;11490;42.726;23.268;2023-04-25T07:16:08;94370.59;;;13.16;100.00
22647;BME280;11490;42.726;23.268;2023-04-25T07:18:33;94368.66;;;13.26;100.00
22647;BME280;11490;42.726;23.268;2023-04-25T07:20:58;94374.25;;;13.35;100.00
22647;BME280;11490;42.726;23.268;2023-04-25T07:23:24;94341.66;;;13.13;100.00
22647;BME280;11490;42.726;23.268;2023-04-25T07:25:49;94363.88;;;13.18;100.00
22647;BME280;11490;42.726;23.268;2023-04-25T07:28:15;94364.34;;;13.35;100.00
22647;BME280;11490;42.726;23.268;2023-04-25T07:30:40;94341.38;;;13.09;100.00
22647;BME280;11490;42.726;23.268;2023-04-25T07:33:06;94366.53;;;13.23;100.00
22647;BME280;11490;42.726;23.268;2023-04-25T07:35:31;94368.59;;;13.41;100.00
22647;BME280;11490;42.726;23.268;2023-04-25T07:37:56;94358.44;;;13.38;100.00
22647;BME280;11490;42.726;23.268;2023-04-25T07:40:22;94349.81;;;13.46;100.00
22647;BME280;11490;42.726;23.268;2023-04-25T07:42:47;94340.03;;;13.17;100.00
22647;BME280;11490;42.726;23.268;2023-04-25T07:45:13;94342.38;;;13.38;100.00
22647;BME280;11490;42.726;23.268;2023-04-25T07:47:38;94336.34;;;13.62;100.00
22647;BME280;11490;42.726;23.268;2023-04-25T07:50:04;94353.09;;;14.16;100.00
22647;BME280;11490;42.726;23.268;2023-04-25T07:52:30;94355.03;;;14.45;100.00
22647;BME280;11490;42.726;23.268;2023-04-25T07:54:55;94351.47;;;14.54;100.00
22647;BME280;11490;42.726;23.268;2023-04-25T07:57:20;94352.41;;;14.63;100.00
22647;BME280;11490;42.726;23.268;2023-04-25T07:59:46;94357.13;;;14.77;99.69
22647;BME280;11490;42.726;23.268;2023-04-25T08:02:14;94342.84;;;14.81;100.00
22647;BME280;11490;42.726;23.268;2023-04-25T08:04:40;94336.13;;;15.08;100.00
22647;BME280;11490;42.726;23.268;2023-04-25T08:07:05;94325.75;;;14.72;96.61
22647;BME280;11490;42.726;23.268;2023-04-25T08:09:30;94340.41;;;15.09;95.81
22647;BME280;11490;42.726;23.268;2023-04-25T08:11:59;94319.75;;;15.28;96.71
22647;BME280;11490;42.726;23.268;2023-04-25T08:14:37;94312.66;;;15.37;95.85
22647;BME280;11490;42.726;23.268;2023-04-25T08:17:04;94325.13;;;15.28;91.71
22647;BME280;11490;42.726;23.268;2023-04-25T08:19:39;94317.88;;;15.47;95.74
22647;BME280;11490;42.726;23.268;2023-04-25T08:22:04;94335.34;;;15.68;93.39
22647;BME280;11490;42.726;23.268;2023-04-25T08:24:35;94323.84;;;15.44;93.11
22647;BME280;11490;42.726;23.268;2023-04-25T08:27:03;94366.50;;;15.27;100.00
22647;BME280;11490;42.726;23.268;2023-04-25T08:29:28;94322.63;;;14.89;99.27
22647;BME280;11490;42.726;23.268;2023-04-25T08:31:53;94358.03;;;14.67;100.00
22647;BME280;11490;42.726;23.268;2023-04-25T08:34:19;94339.91;;;14.20;100.00
22647;BME280;11490;42.726;23.268;2023-04-25T08:36:45;94379.22;;;14.40;100.00
22647;BME280;11490;42.726;23.268;2023-04-25T08:39:11;94359.56;;;13.76;100.00
22647;BME280;11490;42.726;23.268;2023-04-25T08:41:37;94362.56;;;13.65;100.00
22647;BME280;11490;42.726;23.268;2023-04-25T08:44:03;94351.13;;;13.49;100.00
22647;BME280;11490;42.726;23.268;2023-04-25T08:46:31;94341.94;;;14.04;100.00
22647;BME280;11490;42.726;23.268;2023-04-25T08:49:00;94349.94;;;14.43;100.00
22647;BME280;11490;42.726;23.268;2023-04-25T08:51:26;94323.06;;;14.48;100.00
22647;BME280;11490;42.726;23.268;2023-04-25T08:53:56;94329.31;;;14.91;100.00
22647;BME280;11490;42.726;23.268;2023-04-25T08:56:28;94330.03;;;15.21;100.00
22647;BME280;11490;42.726;23.268;2023-04-25T08:58:54;94316.69;;;15.16;100.00
22647;BME280;11490;42.726;23.268;2023-04-25T09:01:20;94325.44;;;15.45;100.00
22647;BME280;11490;42.726;23.268;2023-04-25T09:03:46;94318.69;;;15.48;100.00
22647;BME280;11490;42.726;23.268;2023-04-25T09:06:12;94314.31;;;15.52;100.00
22647;BME280;11490;42.726;23.268;2023-04-25T09:08:38;94294.41;;;15.34;100.00
22647;BME280;11490;42.726;23.268;2023-04-25T09:11:07;94286.25;;;15.63;100.00
22647;BME280;11490;42.726;23.268;2023-04-25T09:13:32;94309.19;;;15.93;100.00
22647;BME280;11490;42.726;23.268;2023-04-25T09:15:58;94295.47;;;15.75;100.00
22647;BME280;11490;42.726;23.268;2023-04-25T09:18:28;94297.25;;;15.99;100.00
22647;BME280;11490;42.726;23.268;2023-04-25T09:20:55;94313.84;;;16.20;100.00
22647;BME280;11490;42.726;23.268;2023-04-25T09:23:22;94276.00;;;16.16;100.00
22647;BME280;11490;42.726;23.268;2023-04-25T09:25:52;94277.66;;;16.44;99.61
22647;BME280;11490;42.726;23.268;2023-04-25T09:28:25;94286.50;;;16.91;100.00
22647;BME280;11490;42.726;23.268;2023-04-25T09:30:59;94274.31;;;16.93;96.49
22647;BME280;11490;42.726;23.268;2023-04-25T09:33:29;94284.28;;;17.34;96.29
22647;BME280;11490;42.726;23.268;2023-04-25T09:36:04;94304.47;;;17.59;95.15
22647;BME280;11490;42.726;23.268;2023-04-25T09:38:44;94295.81;;;17.35;93.53
22647;BME280;11490;42.726;23.268;2023-04-25T09:41:10;94320.81;;;17.13;92.32
22647;BME280;11490;42.726;23.268;2023-04-25T09:43:37;94305.22;;;16.96;89.83
22647;BME280;11490;42.726;23.268;2023-04-25T09:46:07;94318.63;;;17.15;93.38
22647;BME280;11490;42.726;23.268;2023-04-25T09:48:33;94291.94;;;17.41;95.08
22647;BME280;11490;42.726;23.268;2023-04-25T09:51:12;94300.41;;;17.48;87.94
22647;BME280;11490;42.726;23.268;2023-04-25T09:53:42;94309.56;;;17.60;91.28
22647;BME280;11490;42.726;23.268;2023-04-25T09:56:10;94309.53;;;17.88;86.81
22647;BME280;11490;42.726;23.268;2023-04-25T09:58:37;94311.38;;;18.23;89.13
22647;BME280;11490;42.726;23.268;2023-04-25T10:01:05;94299.03;;;18.53;87.65
22647;BME280;11490;42.726;23.268;2023-04-25T10:03:33;94297.28;;;18.79;85.76
22647;BME280;11490;42.726;23.268;2023-04-25T10:05:59;94322.84;;;19.04;81.05
22647;BME280;11490;42.726;23.268;2023-04-25T10:08:32;94298.94;;;18.98;80.08
22647;BME280;11490;42.726;23.268;2023-04-25T10:11:00;94283.91;;;18.74;81.60
22647;BME280;11490;42.726;23.268;2023-04-25T10:13:27;94308.19;;;18.66;81.19
22647;BME280;11490;42.726;23.268;2023-04-25T10:15:53;94319.53;;;18.32;79.79
22647;BME280;11490;42.726;23.268;2023-04-25T10:18:20;94323.59;;;18.21;80.63
22647;BME280;11490;42.726;23.268;2023-04-25T10:20:46;94307.50;;;17.93;83.34
22647;BME280;11490;42.726;23.268;2023-04-25T10:23:15;94320.28;;;18.01;83.09
22647;BME280;11490;42.726;23.268;2023-04-25T10:25:42;94325.47;;;17.98;82.85
22647;BME280;11490;42.726;23.268;2023-04-25T10:28:08;94320.59;;;17.64;79.27
22647;BME280;11490;42.726;23.268;2023-04-25T10:30:33;94331.41;;;17.09;79.34
22647;BME280;11490;42.726;23.268;2023-04-25T10:32:59;94317.34;;;16.52;78.01
22647;BME280;11490;42.726;23.268;2023-04-25T10:35:29;94318.63;;;16.09;83.20
22647;BME280;11490;42.726;23.268;2023-04-25T10:38:14;94297.41;;;15.89;85.92
22647;BME280;11490;42.726;23.268;2023-04-25T10:40:39;94313.53;;;15.89;88.96
22647;BME280;11490;42.726;23.268;2023-04-25T10:43:33;94320.94;;;15.97;89.10
22647;BME280;11490;42.726;23.268;2023-04-25T10:46:00;94313.25;;;16.09;89.18
22647;BME280;11490;42.726;23.268;2023-04-25T10:48:30;94287.94;;;16.10;89.64
22647;BME280;11490;42.726;23.268;2023-04-25T10:51:15;94305.22;;;16.69;89.14
22647;BME280;11490;42.726;23.268;2023-04-25T10:53:41;94302.53;;;16.96;88.21
22647;BME280;11490;42.726;23.268;2023-04-25T10:56:19;94312.03;;;17.21;82.28
22647;BME280;11490;42.726;23.268;2023-04-25T10:58:45;94307.03;;;17.42;79.94
22647;BME280;11490;42.726;23.268;2023-04-25T11:01:21;94302.81;;;17.49;77.04
22647;BME280;11490;42.726;23.268;2023-04-25T11:03:47;94300.75;;;17.33;78.51
22647;BME280;11490;42.726;23.268;2023-04-25T11:09:00;94276.50;;;17.33;74.50
22647;BME280;11490;42.726;23.268;2023-04-25T11:11:26;94288.69;;;17.66;75.46
22647;BME280;11490;42.726;23.268;2023-04-25T11:13:52;94292.72;;;17.91;76.65
22647;BME280;11490;42.726;23.268;2023-04-25T11:16:17;94279.91;;;17.96;73.49
22647;BME280;11490;42.726;23.268;2023-04-25T11:18:44;94299.66;;;17.83;74.39
22647;BME280;11490;42.726;23.268;2023-04-25T11:21:10;94290.59;;;17.52;77.05
22647;BME280;11490;42.726;23.268;2023-04-25T11:23:39;94283.38;;;17.11;76.57
22647;BME280;11490;42.726;23.268;2023-04-25T11:26:04;94279.72;;;16.93;76.64
22647;BME280;11490;42.726;23.268;2023-04-25T11:28:30;94276.53;;;16.78;81.31
22647;BME280;11490;42.726;23.268;2023-04-25T11:30:56;94283.84;;;16.59;77.94
22647;BME280;11490;42.726;23.268;2023-04-25T11:33:26;94288.44;;;16.58;78.35
22647;BME280;11490;42.726;23.268;2023-04-25T11:35:55;94286.41;;;16.36;81.98
22647;BME280;11490;42.726;23.268;2023-04-25T11:38:30;94277.00;;;16.20;80.38
22647;BME280;11490;42.726;23.268;2023-04-25T11:40:58;94258.59;;;15.95;83.76
22647;BME280;11490;42.726;23.268;2023-04-25T11:43:25;94280.91;;;15.95;77.55
22647;BME280;11490;42.726;23.268;2023-04-25T11:45:59;94270.25;;;16.04;80.16
22647;BME280;11490;42.726;23.268;2023-04-25T11:48:25;94245.03;;;15.86;79.03
22647;BME280;11490;42.726;23.268;2023-04-25T11:50:51;94272.13;;;15.90;79.13
22647;BME280;11490;42.726;23.268;2023-04-25T11:53:17;94262.69;;;15.73;75.42
22647;BME280;11490;42.726;23.268;2023-04-25T11:55:43;94285.22;;;15.77;76.61
22647;BME280;11490;42.726;23.268;2023-04-25T11:58:08;94259.50;;;15.71;76.41
22647;BME280;11490;42.726;23.268;2023-04-25T12:00:34;94251.78;;;15.84;73.68
22647;BME280;11490;42.726;23.268;2023-04-25T12:02:59;94259.38;;;15.95;76.23
22647;BME280;11490;42.726;23.268;2023-04-25T12:05:27;94253.56;;;16.07;78.15
22647;BME280;11490;42.726;23.268;2023-04-25T12:07:53;94259.06;;;16.29;75.85
22647;BME280;11490;42.726;23.268;2023-04-25T12:10:20;94236.50;;;16.11;74.94
22647;BME280;11490;42.726;23.268;2023-04-25T12:12:47;94234.50;;;16.03;73.86
22647;BME280;11490;42.726;23.268;2023-04-25T12:17:49;94252.63;;;15.98;72.88
22647;BME280;11490;42.726;23.268;2023-04-25T12:20:17;94321.78;;;16.11;73.46
22647;BME280;11490;42.726;23.268;2023-04-25T12:22:44;94331.28;;;15.90;80.80
22647;BME280;11490;42.726;23.268;2023-04-25T12:25:35;94330.53;;;15.47;86.99
22647;BME280;11490;42.726;23.268;2023-04-25T12:28:20;94323.28;;;14.52;92.32
22647;BME280;11490;42.726;23.268;2023-04-25T12:31:06;94319.00;;;14.17;96.79
22647;BME280;11490;42.726;23.268;2023-04-25T12:33:36;94290.34;;;13.83;100.00
22647;BME280;11490;42.726;23.268;2023-04-25T12:36:03;94303.16;;;13.92;98.55
22647;BME280;11490;42.726;23.268;2023-04-25T12:38:38;94318.47;;;14.20;97.89
22647;BME280;11490;42.726;23.268;2023-04-25T12:41:03;94294.06;;;13.87;96.56
22647;BME280;11490;42.726;23.268;2023-04-25T12:43:29;94304.03;;;14.16;96.79
22647;BME280;11490;42.726;23.268;2023-04-25T12:45:55;94295.31;;;14.00;94.87